METAR AND TAF INFORMATION
METAR FOR KTHV
ADDS - METARS form results

(0359 UTC 17 May 2021)
Data provider http://aviationweather.gov/metar/data/
 
METAR text: KTHV 170353Z AUTO 00000KT 9SM OVC090 12/11 A3028 RMK AO2 SLP254 T01170106
Conditions at: KTHV (YORK , PA, US) observed 0353 UTC 17 May 2021
Temperature: 11.7°C (53°F)
Dewpoint: 10.6°C (51°F) [RH = 93%]
Pressure (altimeter): 30.28 inches Hg (1025.5 mb)
[Sea-level pressure: 1025.4 mb]
Winds: calm
Visibility: 9 miles (14 km)
Ceiling: 9000 feet AGL
Clouds: overcast cloud deck at 9000 feet AGL
Weather: automated observation with no human augmentation;
there may or may not be significant weather present at this time

 AIRPORT MAP

 RUNWAY INFORMATION
Runway 17 Runway length 5188 ft Runway width 100 ft
Runway elevation 470 ft Runway displaced threshold 800 ft Runway heading 155
Runway 35 Runway length 5188 ft Runway width 100 ft
Runway elevation 480 ft Runway displaced threshold 740 ft Runway heading 335

 AIRPORT FREQUENCIES
Type A/D Name HARRISBURG Frequency 124.1 MHZ
Type ASOS Name ASOS Frequency 119.275 MHZ
Type CLD Name CLNC DEL Frequency 121.65 MHZ
Type UNIC Name CTAF/UNICO Frequency 123 MHZ

 AIRPORT NEAR NAVIGATION AIDS

-